Time;durP1;ratioP1;P1;durP2;ratioP2;P2;SDS_P1;SDS_P2;PMS_P1;PMS_P2;Temp;Humidity;BMP_temperature;BMP_pressure;BME280_temperature;BME280_humidity;BME280_pressure;Samples;Min_cycle;Max_cycle;Signal;HPM_P1;HPM_P2
2021/08/09 00:01:41;;;;;;;3.25;2.38;;;;;;;37.09;18.25;94644.16;5075696;28;20045;-52
2021/08/09 00:04:08;;;;;;;3.92;2.63;;;;;;;37.34;18.30;94640.44;5080669;28;20359;-52
2021/08/09 00:06:35;;;;;;;3.50;2.50;;;;;;;37.02;18.52;94644.47;5091925;28;20044;-52
2021/08/09 00:09:02;;;;;;;3.15;2.22;;;;;;;37.12;18.37;94637.81;5095974;28;20052;-52
2021/08/09 00:11:30;;;;;;;3.15;2.20;;;;;;;37.15;18.24;94645.06;5095928;28;20465;-51
2021/08/09 00:13:57;;;;;;;3.25;2.70;;;;;;;36.94;18.38;94643.97;5095668;28;20051;-52
2021/08/09 00:16:24;;;;;;;5.38;2.55;;;;;;;37.18;18.48;94640.69;5081397;28;20055;-52
2021/08/09 00:18:52;;;;;;;2.85;2.42;;;;;;;37.13;18.05;94633.88;5093805;28;20510;-51
2021/08/09 00:21:21;;;;;;;3.92;2.53;;;;;;;36.86;18.49;94641.97;5095726;28;20438;-52
2021/08/09 00:23:48;;;;;;;2.83;2.40;;;;;;;37.07;18.42;94635.69;5095484;28;20052;-49
2021/08/09 00:26:16;;;;;;;3.28;2.30;;;;;;;37.05;18.54;94632.66;5095299;28;20047;-52
2021/08/09 00:28:43;;;;;;;2.78;2.40;;;;;;;37.11;18.35;94638.25;5094754;28;20050;-49
2021/08/09 00:31:10;;;;;;;3.80;2.72;;;;;;;36.91;18.76;94644.09;5093831;28;20055;-53
2021/08/09 00:33:38;;;;;;;2.90;2.50;;;;;;;36.97;18.34;94647.78;5093802;28;20040;-51
2021/08/09 00:36:05;;;;;;;2.47;2.28;;;;;;;36.82;18.49;94641.38;5093216;28;20055;-51
2021/08/09 00:38:37;;;;;;;3.67;2.45;;;;;;;36.65;19.22;94638.09;5094174;28;20071;-49
2021/08/09 00:41:04;;;;;;;3.17;2.42;;;;;;;36.94;18.70;94640.47;5094512;28;20048;-51
2021/08/09 00:43:31;;;;;;;3.45;2.33;;;;;;;37.03;18.88;94633.09;5093699;28;20048;-51
2021/08/09 00:46:03;;;;;;;2.97;2.47;;;;;;;36.62;19.07;94628.09;5072836;28;20048;-49
2021/08/09 00:48:34;;;;;;;3.33;2.40;;;;;;;36.89;18.72;94628.22;5073704;28;20118;-51
2021/08/09 00:51:02;;;;;;;2.30;2.10;;;;;;;36.60;19.03;94628.56;5073953;28;20052;-52
2021/08/09 00:53:30;;;;;;;2.95;2.20;;;;;;;36.37;19.14;94629.06;5074799;28;20059;-51
2021/08/09 00:55:58;;;;;;;2.83;2.13;;;;;;;36.45;19.08;94630.31;5039967;28;20048;-50
2021/08/09 00:58:27;;;;;;;2.55;2.33;;;;;;;36.28;18.79;94620.81;5086496;28;20054;-51
2021/08/09 01:00:54;;;;;;;3.75;2.20;;;;;;;36.51;18.98;94625.81;5093696;28;20043;-52
2021/08/09 01:03:21;;;;;;;2.90;1.77;;;;;;;36.26;18.71;94625.97;5079717;28;20048;-53
2021/08/09 01:05:50;;;;;;;3.45;2.08;;;;;;;36.05;18.92;94625.53;5073470;28;20060;-50
2021/08/09 01:08:59;;;;;;;3.22;2.03;;;;;;;36.20;18.65;94625.03;5074311;28;20055;-52
2021/08/09 01:11:47;;;;;;;2.78;2.33;;;;;;;36.41;18.45;94632.41;5073828;28;20064;-52
2021/08/09 01:14:31;;;;;;;3.45;2.10;;;;;;;36.64;18.37;94631.91;5072869;28;20493;-52
2021/08/09 01:17:00;;;;;;;2.10;1.90;;;;;;;36.67;18.53;94644.59;5055812;28;20048;-54
2021/08/09 01:19:49;;;;;;;2.28;2.08;;;;;;;36.45;18.79;94649.38;5057076;28;20044;-52
2021/08/09 01:22:26;;;;;;;3.00;2.30;;;;;;;36.21;19.14;94631.97;5073542;28;20055;-51
2021/08/09 01:25:22;;;;;;;2.95;2.08;;;;;;;36.61;18.84;94643.69;5073305;28;20048;-49
2021/08/09 01:27:52;;;;;;;2.20;1.80;;;;;;;36.76;18.74;94635.72;5049760;28;20111;-52
2021/08/09 01:30:21;;;;;;;2.50;2.10;;;;;;;36.29;19.28;94627.78;5057058;28;20431;-53
2021/08/09 01:32:49;;;;;;;2.50;2.20;;;;;;;36.44;18.85;94626.09;5073078;28;20048;-52
2021/08/09 01:35:21;;;;;;;6.13;2.58;;;;;;;36.25;19.21;94624.44;5072147;28;20433;-50
2021/08/09 01:37:52;;;;;;;3.45;2.20;;;;;;;36.46;19.16;94631.84;5073062;28;20426;-50
2021/08/09 01:40:21;;;;;;;4.18;2.53;;;;;;;36.14;19.05;94633.75;5056869;28;20051;-50
2021/08/09 01:42:49;;;;;;;2.45;2.00;;;;;;;36.29;19.14;94633.22;5084217;28;20052;-52
2021/08/09 01:45:18;;;;;;;3.65;2.50;;;;;;;36.03;19.54;94638.06;5092835;28;20442;-51
2021/08/09 01:47:46;;;;;;;3.80;2.17;;;;;;;36.22;19.44;94644.38;5093709;28;20048;-51
2021/08/09 01:50:16;;;;;;;2.38;2.10;;;;;;;36.27;19.44;94650.00;5076756;28;20051;-53
2021/08/09 01:52:44;;;;;;;3.28;2.25;;;;;;;36.19;19.51;94656.91;5093272;28;20044;-51
2021/08/09 01:55:15;;;;;;;4.75;2.15;;;;;;;36.27;19.43;94658.16;5093899;28;20107;-51
2021/08/09 01:57:47;;;;;;;3.30;2.50;;;;;;;36.17;19.67;94647.66;5093358;28;20385;-50
2021/08/09 02:00:16;;;;;;;4.10;2.72;;;;;;;35.88;19.48;94640.53;5092957;28;20040;-51
2021/08/09 02:02:44;;;;;;;4.38;2.63;;;;;;;36.05;19.76;94651.97;5094211;28;20044;-50
2021/08/09 02:05:15;;;;;;;4.28;2.47;;;;;;;36.03;19.43;94659.84;5092046;28;20051;-52
2021/08/09 02:07:50;;;;;;;5.05;2.40;;;;;;;36.01;19.60;94657.56;5093337;28;20067;-50
2021/08/09 02:10:29;;;;;;;4.00;2.22;;;;;;;36.06;19.49;94665.13;5094320;28;20056;-48
2021/08/09 02:13:23;;;;;;;3.03;2.40;;;;;;;36.08;19.30;94654.56;5094349;28;20055;-50
2021/08/09 02:15:50;;;;;;;3.53;2.25;;;;;;;35.88;19.39;94658.81;5092620;28;20048;-51
2021/08/09 02:18:45;;;;;;;2.97;2.20;;;;;;;36.07;19.18;94655.78;5093101;28;20052;-50
2021/08/09 02:21:15;;;;;;;4.60;2.50;;;;;;;36.19;19.23;94661.59;5093437;28;20055;-54
2021/08/09 02:23:59;;;;;;;3.33;2.50;;;;;;;35.74;19.85;94655.38;5093006;28;20378;-53
2021/08/09 02:26:35;;;;;;;3.03;2.72;;;;;;;35.62;19.97;94669.00;5089105;28;20056;-50
2021/08/09 02:29:13;;;;;;;3.47;2.40;;;;;;;35.82;19.71;94666.75;5057106;28;20478;-51
2021/08/09 02:31:42;;;;;;;5.13;2.60;;;;;;;35.84;19.80;94670.56;5073984;28;20439;-50
2021/08/09 02:34:11;;;;;;;5.28;2.60;;;;;;;36.02;19.49;94675.41;5056082;28;20123;-51
2021/08/09 02:36:39;;;;;;;3.17;2.70;;;;;;;35.89;19.46;94677.41;5054403;28;20044;-50
2021/08/09 02:39:07;;;;;;;4.47;2.75;;;;;;;35.66;19.86;94685.97;5072781;28;20443;-49
2021/08/09 02:41:38;;;;;;;3.72;2.72;;;;;;;35.93;19.81;94682.75;5057925;28;20055;-51
2021/08/09 02:44:06;;;;;;;3.90;2.50;;;;;;;35.82;19.81;94672.97;5076112;28;20037;-49
2021/08/09 02:46:34;;;;;;;3.72;2.70;;;;;;;35.80;19.54;94680.03;5071382;28;20044;-49
2021/08/09 02:49:01;;;;;;;4.30;2.60;;;;;;;35.89;19.63;94682.84;5095740;28;20044;-51
2021/08/09 02:51:29;;;;;;;3.13;2.50;;;;;;;35.98;19.62;94684.88;5078822;28;20052;-48
2021/08/09 02:53:56;;;;;;;5.38;3.10;;;;;;;35.92;19.67;94681.97;5095413;28;20048;-52
2021/08/09 02:56:25;;;;;;;5.95;2.90;;;;;;;35.60;19.47;94690.44;5095978;28;20043;-50
2021/08/09 02:58:52;;;;;;;4.70;3.00;;;;;;;36.06;19.08;94686.16;5079509;28;20048;-51
2021/08/09 03:01:20;;;;;;;3.75;2.85;;;;;;;35.56;19.98;94690.56;5095146;28;20036;-51
2021/08/09 03:03:49;;;;;;;6.40;2.70;;;;;;;35.90;19.40;94686.31;5095615;28;20048;-49
2021/08/09 03:06:17;;;;;;;5.20;2.75;;;;;;;35.71;19.59;94693.56;5094425;28;20051;-52
2021/08/09 03:08:45;;;;;;;4.95;2.90;;;;;;;35.58;20.22;94698.28;5095873;28;20051;-53
2021/08/09 03:11:14;;;;;;;5.05;2.97;;;;;;;35.47;20.29;94707.56;5078997;28;20052;-52
2021/08/09 03:13:46;;;;;;;5.50;3.25;;;;;;;35.42;20.19;94705.41;5095411;28;20048;-50
2021/08/09 03:16:13;;;;;;;3.58;2.72;;;;;;;35.44;19.95;94705.72;5096825;28;20044;-54
2021/08/09 03:18:41;;;;;;;7.72;3.03;;;;;;;35.42;20.01;94699.97;5095963;28;20058;-50
2021/08/09 03:21:09;;;;;;;3.75;3.08;;;;;;;35.57;20.19;94702.94;5095013;28;20051;-51
2021/08/09 03:23:38;;;;;;;6.28;2.97;;;;;;;35.36;20.73;94700.94;5096732;28;20465;-50
2021/08/09 03:26:07;;;;;;;3.85;3.10;;;;;;;35.41;20.43;94705.84;5095698;28;20559;-48
2021/08/09 03:28:34;;;;;;;5.35;3.00;;;;;;;35.27;20.78;94704.28;5095768;28;20110;-51
2021/08/09 03:31:03;;;;;;;5.25;3.00;;;;;;;35.38;20.51;94709.41;5087248;28;20057;-51
2021/08/09 03:33:31;;;;;;;7.32;3.38;;;;;;;35.57;20.15;94710.34;5075282;28;20434;-50
2021/08/09 03:35:59;;;;;;;5.03;2.90;;;;;;;35.33;20.33;94710.69;5074640;28;20374;-50
2021/08/09 03:38:27;;;;;;;8.10;3.13;;;;;;;35.25;20.57;94712.13;5075430;28;20051;-51
2021/08/09 03:40:54;;;;;;;4.85;3.15;;;;;;;35.18;20.50;94712.38;5074946;28;20044;-50
2021/08/09 03:43:21;;;;;;;5.32;3.15;;;;;;;35.47;20.17;94713.00;5075766;28;20041;-55
2021/08/09 03:45:49;;;;;;;5.45;3.22;;;;;;;35.54;20.24;94711.97;5074789;28;20055;-50
2021/08/09 03:48:16;;;;;;;10.63;3.95;;;;;;;35.18;20.69;94712.38;5075230;28;20045;-51
2021/08/09 03:50:43;;;;;;;5.60;3.30;;;;;;;35.44;20.56;94708.44;5074863;28;20048;-50
2021/08/09 03:53:10;;;;;;;4.93;3.40;;;;;;;35.43;20.06;94701.47;5072896;28;20051;-48
2021/08/09 03:55:38;;;;;;;8.10;3.25;;;;;;;35.41;20.09;94714.75;5074821;28;20052;-50
2021/08/09 03:58:05;;;;;;;6.50;3.40;;;;;;;35.68;19.61;94714.25;5075131;28;20045;-51
2021/08/09 04:00:33;;;;;;;6.00;3.30;;;;;;;35.68;19.45;94710.75;5089008;28;20048;-49
2021/08/09 04:03:01;;;;;;;6.15;3.15;;;;;;;35.77;19.74;94721.72;5087075;28;20048;-53
2021/08/09 04:05:36;;;;;;;7.47;3.22;;;;;;;35.65;19.74;94727.94;5081813;28;20063;-51
2021/08/09 04:08:04;;;;;;;8.05;3.10;;;;;;;35.31;20.10;94720.47;5084407;28;20047;-50
2021/08/09 04:10:31;;;;;;;6.68;3.03;;;;;;;35.78;20.02;94726.69;5074383;28;20482;-51
2021/08/09 04:12:59;;;;;;;4.35;2.92;;;;;;;36.27;19.13;94722.72;5072501;28;20481;-51
2021/08/09 04:15:27;;;;;;;5.85;2.80;;;;;;;36.23;19.23;94724.81;5073273;28;20059;-44
2021/08/09 04:17:55;;;;;;;5.60;2.95;;;;;;;36.34;19.23;94717.03;5086688;28;20052;-50
2021/08/09 04:20:22;;;;;;;7.07;3.38;;;;;;;35.89;19.94;94720.91;5094573;28;20036;-52
2021/08/09 04:22:49;;;;;;;8.50;3.05;;;;;;;35.50;20.47;94716.78;5085226;28;20048;-45
2021/08/09 04:25:18;;;;;;;6.10;3.10;;;;;;;35.52;20.39;94720.56;5094497;28;20047;-48
2021/08/09 04:27:45;;;;;;;6.45;3.08;;;;;;;36.91;19.32;94721.13;5075035;28;20053;-54
2021/08/09 04:30:12;;;;;;;7.53;3.60;;;;;;;37.37;18.92;94717.84;5075148;28;20051;-52
2021/08/09 04:32:45;;;;;;;7.93;3.58;;;;;;;37.92;18.27;94719.44;5073974;28;20052;-53
2021/08/09 04:35:15;;;;;;;5.75;3.30;;;;;;;38.29;17.91;94727.63;5073627;28;20055;-55
2021/08/09 04:37:46;;;;;;;5.80;3.10;;;;;;;37.62;18.38;94714.84;5057780;28;20647;-51
2021/08/09 04:40:14;;;;;;;5.78;3.45;;;;;;;37.80;18.43;94727.78;5083410;28;20040;-55
2021/08/09 04:42:42;;;;;;;5.47;3.15;;;;;;;38.02;18.20;94727.63;5094628;28;20047;-51
2021/08/09 04:45:12;;;;;;;7.82;3.58;;;;;;;38.71;18.38;94735.16;5094058;28;20048;-53
2021/08/09 04:47:40;;;;;;;9.00;4.00;;;;;;;39.10;17.67;94742.31;5085940;28;20060;-54
2021/08/09 04:50:09;;;;;;;4.35;2.83;;;;;;;39.06;17.64;94736.28;5073863;28;20051;-56
2021/08/09 04:52:40;;;;;;;5.80;3.80;;;;;;;38.83;17.80;94739.66;5091360;28;20058;-56
2021/08/09 04:55:10;;;;;;;6.25;3.40;;;;;;;38.61;17.40;94733.63;5093830;28;20058;-52
2021/08/09 04:57:37;;;;;;;7.80;4.30;;;;;;;39.48;17.14;94751.84;5093836;28;20059;-54
2021/08/09 05:00:05;;;;;;;6.93;3.20;;;;;;;39.31;16.92;94762.44;5090631;28;20044;-56
2021/08/09 05:02:38;;;;;;;12.25;3.42;;;;;;;39.17;17.01;94758.38;5073196;28;20471;-55
2021/08/09 05:05:07;;;;;;;6.70;3.42;;;;;;;39.55;16.48;94759.72;5072882;28;20059;-54
2021/08/09 05:07:34;;;;;;;5.72;3.35;;;;;;;39.47;16.62;94764.00;5073601;28;20071;-57
2021/08/09 05:10:04;;;;;;;6.50;3.40;;;;;;;39.84;16.31;94766.56;5074695;28;20056;-56
2021/08/09 05:12:32;;;;;;;6.40;3.65;;;;;;;39.64;16.24;94773.38;5072951;28;20045;-54
2021/08/09 05:15:14;;;;;;;5.63;3.90;;;;;;;39.58;16.46;94767.03;5073720;28;20048;-60
2021/08/09 05:17:42;;;;;;;5.90;3.55;;;;;;;40.12;15.86;94759.69;5072714;28;20447;-55
2021/08/09 05:20:10;;;;;;;5.40;3.60;;;;;;;39.83;15.75;94759.56;5074181;28;20111;-56
2021/08/09 05:22:37;;;;;;;7.10;3.47;;;;;;;39.19;16.43;94765.38;5073985;28;20352;-57
2021/08/09 05:25:09;;;;;;;4.28;3.60;;;;;;;39.09;16.58;94768.16;5073422;28;20363;-56
2021/08/09 05:27:36;;;;;;;5.30;3.90;;;;;;;39.65;16.18;94772.13;5056650;28;20060;-54
2021/08/09 05:30:04;;;;;;;4.93;3.70;;;;;;;39.88;15.85;94772.59;5074538;28;20051;-56
2021/08/09 05:32:31;;;;;;;6.38;3.70;;;;;;;40.10;15.46;94764.88;5088879;28;20446;-54
2021/08/09 05:34:59;;;;;;;4.63;4.22;;;;;;;39.88;15.83;94767.88;5092158;28;20066;-60
2021/08/09 05:37:31;;;;;;;5.30;3.83;;;;;;;40.16;15.40;94773.94;5093445;28;20685;-56
2021/08/09 05:40:00;;;;;;;4.38;3.97;;;;;;;40.33;15.37;94769.50;5076445;28;20048;-60
2021/08/09 05:42:27;;;;;;;4.43;3.80;;;;;;;40.01;15.73;94778.59;5092496;28;20055;-55
2021/08/09 05:44:54;;;;;;;5.93;3.60;;;;;;;39.91;15.92;94768.94;5092832;28;20048;-61
2021/08/09 05:47:21;;;;;;;5.82;4.07;;;;;;;40.36;15.31;94779.53;5093965;28;20082;-56
2021/08/09 05:49:49;;;;;;;4.80;3.72;;;;;;;40.11;15.68;94766.38;5092816;28;20465;-60
2021/08/09 05:52:24;;;;;;;4.00;3.58;;;;;;;40.34;15.35;94779.25;5092310;28;20051;-57
2021/08/09 05:55:03;;;;;;;7.95;3.55;;;;;;;40.57;15.46;94768.72;5090008;28;20047;-61
2021/08/09 05:57:32;;;;;;;4.63;3.50;;;;;;;39.77;16.25;94778.59;5077004;28;20055;-55
2021/08/09 05:59:59;;;;;;;4.55;3.08;;;;;;;40.02;15.84;94769.91;5085129;28;20045;-59
2021/08/09 06:02:27;;;;;;;6.95;3.45;;;;;;;40.17;15.51;94775.44;5072878;28;20044;-60
2021/08/09 06:04:55;;;;;;;4.90;3.42;;;;;;;40.33;15.64;94774.97;5072421;28;20378;-61
2021/08/09 06:07:22;;;;;;;6.38;3.35;;;;;;;40.38;15.74;94767.41;5073036;28;20336;-60
2021/08/09 06:10:01;;;;;;;4.40;3.08;;;;;;;40.28;15.44;94781.13;5064738;28;20052;-61
2021/08/09 06:12:28;;;;;;;2.70;2.50;;;;;;;39.81;15.73;94775.66;5073073;28;20443;-56
2021/08/09 06:14:55;;;;;;;4.07;2.58;;;;;;;39.58;15.96;94769.00;5072930;28;20053;-60
2021/08/09 06:17:23;;;;;;;2.95;2.20;;;;;;;39.98;15.72;94771.34;5076378;28;20044;-60
2021/08/09 06:19:50;;;;;;;6.35;2.35;;;;;;;39.87;15.61;94776.56;5087169;28;20051;-60
2021/08/09 06:22:17;;;;;;;3.38;2.53;;;;;;;39.72;15.77;94763.56;5097064;28;20044;-59
2021/08/09 06:24:47;;;;;;;3.13;2.33;;;;;;;39.97;15.66;94767.09;5095997;28;20051;-61
2021/08/09 06:27:14;;;;;;;5.15;3.30;;;;;;;40.19;15.44;94772.25;5097030;28;20055;-59
2021/08/09 06:29:41;;;;;;;3.75;2.80;;;;;;;40.80;15.18;94776.13;5088946;28;20489;-71
2021/08/09 06:32:09;;;;;;;6.53;2.83;;;;;;;41.04;14.95;94781.47;5060336;28;20390;-71
2021/08/09 06:34:36;;;;;;;8.23;3.05;;;;;;;41.24;14.82;94775.34;5077631;28;20049;-71
2021/08/09 06:37:04;;;;;;;4.18;2.80;;;;;;;41.40;14.85;94772.09;5093099;28;20040;-71
2021/08/09 06:39:35;;;;;;;2.88;2.42;;;;;;;41.34;14.40;94773.97;5087106;28;20146;-70
2021/08/09 06:42:04;;;;;;;5.82;2.65;;;;;;;41.20;14.42;94774.75;5076397;28;20052;-70
2021/08/09 06:44:36;;;;;;;4.60;2.67;;;;;;;40.97;14.63;94768.94;5075249;28;20052;-69
2021/08/09 06:47:03;;;;;;;4.63;2.78;;;;;;;41.21;14.37;94770.78;5077173;28;20052;-69
2021/08/09 06:49:30;;;;;;;5.32;2.75;;;;;;;41.41;14.32;94779.09;5077228;28;20056;-68
2021/08/09 06:52:00;;;;;;;3.58;2.50;;;;;;;40.91;15.00;94776.31;5075522;28;20049;-69
2021/08/09 06:54:27;;;;;;;5.32;2.80;;;;;;;41.51;14.38;94776.97;5076934;28;20041;-70
2021/08/09 06:57:01;;;;;;;7.40;2.80;;;;;;;41.18;14.88;94777.97;5075381;28;20053;-69
2021/08/09 06:59:28;;;;;;;5.25;2.55;;;;;;;41.34;14.77;94782.22;5075965;28;20056;-69
2021/08/09 07:01:56;;;;;;;8.90;2.80;;;;;;;41.54;14.61;94787.75;5076034;28;20044;-71
2021/08/09 07:04:24;;;;;;;4.93;2.30;;;;;;;41.80;13.98;94781.63;5075307;28;20343;-71
2021/08/09 07:06:53;;;;;;;4.30;2.47;;;;;;;41.41;14.58;94779.09;5074701;28;20078;-70
2021/08/09 07:09:24;;;;;;;2.95;2.47;;;;;;;41.84;14.00;94773.94;5075014;28;20056;-71
2021/08/09 07:11:51;;;;;;;4.25;2.60;;;;;;;42.26;13.70;94780.94;5077084;28;20044;-70
2021/08/09 07:14:21;;;;;;;4.50;2.60;;;;;;;42.60;13.49;94774.56;5086367;28;20044;-69
2021/08/09 07:16:50;;;;;;;4.67;2.40;;;;;;;42.48;13.62;94767.47;5075656;28;20048;-70
2021/08/09 07:19:18;;;;;;;6.95;2.70;;;;;;;42.70;13.54;94775.16;5075215;28;20044;-70
2021/08/09 07:21:45;;;;;;;3.33;2.42;;;;;;;42.73;13.52;94780.44;5076836;28;20363;-70
2021/08/09 07:24:13;;;;;;;4.20;2.70;;;;;;;43.03;13.42;94774.72;5075769;28;20362;-68
2021/08/09 07:26:40;;;;;;;3.88;2.30;;;;;;;43.23;13.22;94774.63;5075132;28;20051;-69
2021/08/09 07:29:07;;;;;;;5.85;2.85;;;;;;;42.97;13.27;94776.69;5074351;28;20048;-69
2021/08/09 07:31:34;;;;;;;7.10;2.70;;;;;;;43.02;13.11;94770.47;5075235;28;20066;-69
2021/08/09 07:34:01;;;;;;;5.50;2.70;;;;;;;42.93;13.42;94778.88;5075416;28;20041;-69
2021/08/09 07:36:29;;;;;;;6.65;2.53;;;;;;;42.83;13.17;94780.28;5074839;28;20052;-69
2021/08/09 07:39:03;;;;;;;3.25;2.42;;;;;;;42.65;13.42;94787.59;5075525;28;20048;-70
2021/08/09 07:41:30;;;;;;;5.35;2.70;;;;;;;42.63;13.53;94784.59;5076564;28;20466;-70
2021/08/09 07:43:59;;;;;;;5.13;2.67;;;;;;;42.87;13.01;94773.31;5074259;28;20056;-68
2021/08/09 07:46:27;;;;;;;4.05;2.70;;;;;;;43.31;12.98;94781.19;5076002;28;20045;-70
2021/08/09 07:48:58;;;;;;;4.82;2.53;;;;;;;43.20;13.06;94774.81;5074231;28;20055;-70
2021/08/09 07:51:25;;;;;;;4.78;2.88;;;;;;;43.67;12.97;94785.19;5075257;28;20051;-70
2021/08/09 07:53:54;;;;;;;4.40;2.88;;;;;;;43.57;12.90;94786.59;5083320;28;20055;-69
2021/08/09 07:56:22;;;;;;;6.05;2.90;;;;;;;43.89;12.58;94795.53;5092143;28;20479;-69
2021/08/09 07:58:50;;;;;;;6.93;2.95;;;;;;;43.77;12.70;94788.50;5075775;28;20048;-69
2021/08/09 08:01:17;;;;;;;5.38;3.00;;;;;;;44.34;12.54;94792.25;5074695;28;20047;-70
2021/08/09 08:03:44;;;;;;;5.55;3.00;;;;;;;43.89;12.84;94790.03;5074974;28;20363;-70
2021/08/09 08:06:11;;;;;;;5.00;2.80;;;;;;;44.22;12.48;94789.44;5079356;28;20115;-70
2021/08/09 08:08:38;;;;;;;5.25;3.15;;;;;;;44.14;12.43;94796.69;5091027;28;20048;-70
2021/08/09 08:11:06;;;;;;;4.47;2.60;;;;;;;44.23;12.43;94790.19;5075350;28;20359;-71
2021/08/09 08:13:34;;;;;;;5.70;2.97;;;;;;;44.39;12.50;94797.75;5074545;28;20466;-70
2021/08/09 08:16:01;;;;;;;6.93;3.00;;;;;;;44.32;12.63;94798.25;5074752;28;20051;-67
2021/08/09 08:18:29;;;;;;;5.15;2.75;;;;;;;44.75;12.29;94801.59;5074691;28;20495;-70
2021/08/09 08:20:56;;;;;;;6.30;2.80;;;;;;;44.46;12.53;94797.28;5074167;28;20048;-70
2021/08/09 08:23:24;;;;;;;6.07;3.20;;;;;;;44.39;12.62;94786.72;5074468;28;20044;-70
2021/08/09 08:25:52;;;;;;;4.10;3.00;;;;;;;44.49;12.11;94792.78;5074614;28;20052;-68
2021/08/09 08:28:20;;;;;;;4.50;3.25;;;;;;;44.52;12.11;94784.31;5075858;28;20455;-70
2021/08/09 08:30:49;;;;;;;5.38;3.30;;;;;;;44.82;12.06;94790.09;5074573;28;20391;-71
2021/08/09 08:33:17;;;;;;;7.22;3.40;;;;;;;44.35;12.42;94791.75;5074438;28;20115;-70
2021/08/09 08:35:44;;;;;;;3.80;3.30;;;;;;;44.70;12.07;94785.81;5074822;28;20040;-69
2021/08/09 08:38:12;;;;;;;6.65;3.80;;;;;;;45.04;11.73;94789.38;5073754;28;20048;-67
2021/08/09 08:40:47;;;;;;;7.25;3.30;;;;;;;45.05;11.66;94787.38;5073047;28;20044;-70
2021/08/09 08:43:25;;;;;;;9.60;3.90;;;;;;;45.05;11.83;94788.13;5073969;28;20055;-71
2021/08/09 08:46:04;;;;;;;5.57;4.05;;;;;;;45.53;11.61;94789.81;5074010;28;20055;-70
2021/08/09 08:48:34;;;;;;;4.10;3.65;;;;;;;45.08;11.66;94789.88;5073896;28;20063;-71
2021/08/09 08:51:02;;;;;;;5.43;4.30;;;;;;;45.58;11.40;94786.31;5073007;28;20379;-71
2021/08/09 08:53:32;;;;;;;6.32;4.05;;;;;;;45.81;11.36;94789.81;5057528;28;20271;-71
2021/08/09 08:56:03;;;;;;;5.30;3.83;;;;;;;45.57;11.77;94793.09;5090437;28;20052;-70
2021/08/09 08:58:30;;;;;;;4.63;4.00;;;;;;;45.72;11.34;94795.59;5074744;28;20048;-69
2021/08/09 09:00:57;;;;;;;5.45;4.03;;;;;;;45.89;11.46;94776.22;5088395;28;20036;-70
2021/08/09 09:03:26;;;;;;;6.80;4.05;;;;;;;46.05;11.37;94778.91;5094260;28;20047;-70
2021/08/09 09:06:01;;;;;;;6.95;4.05;;;;;;;45.48;11.64;94782.31;5094378;28;20409;-67
2021/08/09 09:08:45;;;;;;;4.85;3.65;;;;;;;45.78;11.77;94785.28;5094759;28;20055;-69
2021/08/09 09:11:37;;;;;;;4.80;3.80;;;;;;;46.25;11.26;94785.34;5078191;28;20048;-70
2021/08/09 09:14:05;;;;;;;6.70;4.10;;;;;;;45.77;11.33;94781.75;5074605;28;20041;-70
2021/08/09 09:16:47;;;;;;;6.53;3.97;;;;;;;46.27;11.07;94789.09;5074071;28;20044;-70
2021/08/09 09:19:33;;;;;;;8.25;4.50;;;;;;;45.43;11.70;94777.56;5074386;28;20048;-70
2021/08/09 09:22:02;;;;;;;5.60;4.38;;;;;;;45.84;11.61;94777.00;5084020;28;20036;-69
2021/08/09 09:24:29;;;;;;;5.72;4.30;;;;;;;45.89;11.14;94784.50;5094278;28;20055;-70
2021/08/09 09:27:10;;;;;;;7.60;4.50;;;;;;;46.43;10.52;94773.00;5095043;28;20047;-71
2021/08/09 09:29:39;;;;;;;5.80;4.22;;;;;;;46.50;10.91;94777.97;5087821;28;20059;-69
2021/08/09 09:32:18;;;;;;;5.47;3.93;;;;;;;46.38;11.15;94778.03;5074573;28;20079;-69
2021/08/09 09:34:57;;;;;;;5.90;3.80;;;;;;;46.68;10.59;94777.34;5075140;28;20048;-70
2021/08/09 09:37:30;;;;;;;8.55;4.63;;;;;;;46.61;10.63;94777.91;5093500;28;20040;-70
2021/08/09 09:40:11;;;;;;;8.30;4.88;;;;;;;45.86;10.83;94772.47;5094529;28;20460;-70
2021/08/09 09:42:40;;;;;;;5.38;4.43;;;;;;;46.47;10.81;94773.47;5093995;28;20381;-70
2021/08/09 09:45:26;;;;;;;8.07;4.28;;;;;;;46.47;10.34;94773.47;5094136;28;20052;-68
2021/08/09 09:48:10;;;;;;;9.18;4.75;;;;;;;46.93;10.25;94765.09;5094631;28;20060;-68
2021/08/09 09:50:41;;;;;;;5.35;4.75;;;;;;;46.57;10.56;94761.56;5096313;28;20059;-68
2021/08/09 09:53:17;;;;;;;6.00;4.55;;;;;;;46.95;10.40;94762.56;5098308;28;20048;-68
2021/08/09 09:55:47;;;;;;;6.38;4.75;;;;;;;46.90;10.22;94748.81;5098216;28;20055;-69
2021/08/09 09:58:15;;;;;;;7.97;5.07;;;;;;;46.52;10.77;94758.84;5097860;28;20073;-69
2021/08/09 10:00:43;;;;;;;5.40;4.40;;;;;;;46.34;10.65;94755.44;5086773;28;20049;-69
2021/08/09 10:03:11;;;;;;;6.63;4.28;;;;;;;46.82;10.19;94748.59;5084067;28;20055;-69
2021/08/09 10:05:40;;;;;;;8.75;4.68;;;;;;;46.88;10.33;94752.09;5097976;28;20051;-70
2021/08/09 10:08:17;;;;;;;10.10;4.72;;;;;;;46.72;10.04;94747.41;5098245;28;20381;-70
2021/08/09 10:10:50;;;;;;;7.45;5.05;;;;;;;47.18;9.82;94748.56;5097886;28;20043;-70
2021/08/09 10:13:20;;;;;;;8.23;4.80;;;;;;;47.34;10.02;94747.66;5077667;28;20048;-70
2021/08/09 10:15:55;;;;;;;7.40;4.40;;;;;;;47.04;9.89;94746.91;5078171;28;20045;-68
2021/08/09 10:18:27;;;;;;;5.72;4.32;;;;;;;47.21;9.66;94734.44;5077632;28;20290;-69
2021/08/09 10:20:55;;;;;;;6.05;4.35;;;;;;;45.67;10.38;94736.38;5088052;28;20043;-68
2021/08/09 10:23:36;;;;;;;5.65;5.07;;;;;;;46.94;9.85;94738.94;5097061;28;20055;-68
2021/08/09 10:26:05;;;;;;;4.93;4.30;;;;;;;47.05;9.89;94743.63;5097004;28;20476;-69
2021/08/09 10:28:51;;;;;;;5.53;4.82;;;;;;;46.85;9.99;94733.00;5096948;28;20051;-68
2021/08/09 10:31:26;;;;;;;5.93;5.03;;;;;;;46.53;10.22;94732.72;5097533;28;20047;-68
2021/08/09 10:33:53;;;;;;;7.60;4.60;;;;;;;47.28;9.63;94735.88;5097479;28;20055;-68
2021/08/09 10:36:22;;;;;;;6.25;4.90;;;;;;;47.27;9.51;94737.16;5097342;28;20059;-69
2021/08/09 10:38:50;;;;;;;7.43;4.65;;;;;;;46.56;10.11;94742.72;5097683;28;20464;-69
2021/08/09 10:41:33;;;;;;;5.82;4.70;;;;;;;46.70;10.42;94734.09;5097517;28;20040;-68
2021/08/09 10:44:08;;;;;;;6.05;4.70;;;;;;;46.88;9.92;94729.97;5079124;28;20044;-65
2021/08/09 10:46:36;;;;;;;5.28;4.72;;;;;;;46.17;10.08;94729.91;5097438;28;20044;-68
2021/08/09 10:49:04;;;;;;;7.05;4.82;;;;;;;47.08;9.40;94723.22;5097630;28;20362;-68
2021/08/09 10:51:50;;;;;;;5.07;4.43;;;;;;;47.05;9.73;94726.28;5096836;28;20052;-68
2021/08/09 10:54:35;;;;;;;6.72;4.65;;;;;;;46.72;9.55;94733.56;5096829;28;20055;-69
2021/08/09 10:57:05;;;;;;;6.97;4.53;;;;;;;47.21;9.29;94723.38;5097007;28;20051;-69
2021/08/09 10:59:48;;;;;;;6.30;4.40;;;;;;;47.17;9.46;94722.19;5096616;28;20040;-68
2021/08/09 11:02:23;;;;;;;5.85;4.57;;;;;;;47.07;9.57;94718.94;5096831;28;20043;-68
2021/08/09 11:05:12;;;;;;;9.50;4.53;;;;;;;46.71;9.60;94721.00;5095709;28;20047;-68
2021/08/09 11:07:40;;;;;;;5.67;4.50;;;;;;;46.62;9.54;94721.34;5097108;28;20059;-68
2021/08/09 11:10:08;;;;;;;5.40;4.45;;;;;;;46.72;9.64;94728.03;5096239;28;20059;-68
2021/08/09 11:13:01;;;;;;;7.03;4.45;;;;;;;46.75;9.54;94727.03;5096800;28;20044;-68
2021/08/09 11:15:28;;;;;;;6.65;4.72;;;;;;;46.51;9.61;94724.19;5097127;28;20447;-68
2021/08/09 11:17:59;;;;;;;4.82;4.00;;;;;;;46.38;9.57;94722.78;5097202;28;20048;-68
2021/08/09 11:20:33;;;;;;;6.68;4.75;;;;;;;46.56;9.51;94726.16;5096899;28;20070;-70
2021/08/09 11:23:14;;;;;;;7.30;4.30;;;;;;;46.62;9.68;94724.84;5095614;28;20674;-69
2021/08/09 11:25:41;;;;;;;;;;;;;;;46.89;9.41;94725.94;5096710;28;20373;-68
2021/08/09 11:28:16;;;;;;;5.80;4.43;;;;;;;47.00;9.54;94725.06;5096531;28;20242;-68
2021/08/09 11:30:46;;;;;;;6.00;4.05;;;;;;;46.78;9.32;94726.00;5088862;28;20053;-68
2021/08/09 11:33:33;;;;;;;5.18;4.00;;;;;;;46.49;9.46;94726.72;5080156;28;20055;-68
2021/08/09 11:36:14;;;;;;;6.15;4.32;;;;;;;46.73;9.65;94723.25;5096207;28;20044;-68
2021/08/09 11:38:47;;;;;;;6.05;4.25;;;;;;;46.20;9.85;94728.13;5096476;28;20365;-68
2021/08/09 11:41:19;;;;;;;5.57;3.85;;;;;;;46.31;9.69;94720.50;5096275;28;20046;-68
2021/08/09 11:43:48;;;;;;;4.80;3.75;;;;;;;46.50;9.94;94722.69;5096508;28;20058;-68
2021/08/09 11:46:17;;;;;;;7.25;4.40;;;;;;;46.17;9.99;94723.63;5078340;28;20048;-67
2021/08/09 11:48:48;;;;;;;6.25;4.45;;;;;;;46.13;9.87;94723.91;5093230;28;20048;-68
2021/08/09 11:51:35;;;;;;;7.05;4.40;;;;;;;46.06;9.45;94716.13;5075828;28;20041;-66